createdAt,value
2017-11-18T00:00:14.709Z,66.80
2017-11-18T00:01:16.765Z,67.60
2017-11-18T00:02:18.806Z,66.80
2017-11-18T00:03:20.134Z,66.80
2017-11-18T00:04:21.423Z,66.80
2017-11-18T00:05:23.014Z,66.70
2017-11-18T00:06:24.303Z,66.60
2017-11-18T00:07:25.588Z,66.60
2017-11-18T00:08:26.888Z,66.60
2017-11-18T00:09:28.201Z,66.70
2017-11-18T00:10:29.550Z,66.70
2017-11-18T00:11:30.870Z,66.80
2017-11-18T00:12:32.910Z,66.70
2017-11-18T00:13:34.209Z,66.60
2017-11-18T00:14:35.538Z,66.60
2017-11-18T00:15:37.259Z,66.60
2017-11-18T00:16:45.522Z,66.60
2017-11-18T00:17:46.845Z,66.60
2017-11-18T00:18:48.125Z,66.50
2017-11-18T00:19:50.173Z,66.50
2017-11-18T00:20:52.629Z,66.50
2017-11-18T00:21:53.925Z,66.40
2017-11-18T00:22:55.223Z,66.40
2017-11-18T00:23:57.266Z,66.70
2017-11-18T00:24:59.335Z,66.80
2017-11-18T00:26:01.791Z,66.70
2017-11-18T00:27:03.841Z,66.60
2017-11-18T00:28:05.138Z,66.50
2017-11-18T00:29:06.433Z,66.40
2017-11-18T00:30:08.461Z,66.10
2017-11-18T00:31:10.074Z,66.00
2017-11-18T00:32:11.368Z,65.90
2017-11-18T00:33:13.467Z,65.90
2017-11-18T00:34:14.764Z,65.90
2017-11-18T00:35:16.805Z,65.90
2017-11-18T00:36:19.124Z,66.00
2017-11-18T00:37:20.408Z,65.90
2017-11-18T00:38:22.445Z,66.00
2017-11-18T00:39:23.743Z,65.90
2017-11-18T00:40:25.042Z,65.90
2017-11-18T00:41:27.148Z,66.00
2017-11-18T00:42:28.440Z,65.90
2017-11-18T00:43:30.601Z,65.90
2017-11-18T00:44:31.909Z,65.90
2017-11-18T00:45:33.764Z,65.90
2017-11-18T00:46:35.389Z,65.80
2017-11-18T00:47:36.708Z,66.20
2017-11-18T00:48:38.002Z,66.50
2017-11-18T00:49:40.037Z,66.90
2017-11-18T00:50:42.069Z,67.70
2017-11-18T00:51:43.688Z,66.90
2017-11-18T00:52:44.975Z,67.10
2017-11-18T00:53:46.281Z,67.20
2017-11-18T00:54:47.560Z,68.00
2017-11-18T00:55:49.601Z,67.70
2017-11-18T00:56:50.922Z,67.70
2017-11-18T00:57:52.209Z,67.80
2017-11-18T00:58:53.496Z,68.00
2017-11-18T00:59:54.789Z,68.30
2017-11-18T01:00:56.085Z,68.40
2017-11-18T01:01:57.657Z,68.50
2017-11-18T01:02:58.946Z,68.40
2017-11-18T01:04:00.276Z,68.30
2017-11-18T01:05:01.592Z,68.30
2017-11-18T01:06:02.876Z,68.20
2017-11-18T01:07:04.483Z,68.20
2017-11-18T01:08:05.771Z,68.10
2017-11-18T01:09:07.812Z,68.10
2017-11-18T01:10:09.144Z,68.00
2017-11-18T01:11:10.447Z,68.00
2017-11-18T01:12:12.048Z,67.80
2017-11-18T01:13:14.094Z,67.80
2017-11-18T01:14:15.384Z,67.70
2017-11-18T01:15:16.681Z,67.70
2017-11-18T01:16:18.739Z,67.60
2017-11-18T01:17:20.812Z,68.10
2017-11-18T01:18:22.100Z,67.50
2017-11-18T01:19:24.221Z,67.40
2017-11-18T01:20:25.549Z,67.30
2017-11-18T01:21:26.868Z,67.90
2017-11-18T01:22:29.254Z,67.20
2017-11-18T01:23:30.565Z,67.20
2017-11-18T01:24:32.598Z,67.10
2017-11-18T01:25:33.872Z,67.10
2017-11-18T01:26:35.182Z,67.10
2017-11-18T01:27:37.252Z,67.20
2017-11-18T01:28:39.285Z,67.20
2017-11-18T01:29:40.594Z,67.20
2017-11-18T01:30:41.893Z,67.30
2017-11-18T01:31:43.217Z,67.20
2017-11-18T01:32:45.537Z,67.20
2017-11-18T01:33:47.477Z,67.80
2017-11-18T01:34:48.792Z,67.10
2017-11-18T01:35:50.123Z,67.00
2017-11-18T01:36:51.445Z,67.00
2017-11-18T01:37:53.784Z,67.20
2017-11-18T01:38:55.848Z,67.10
2017-11-18T01:39:58.565Z,67.10
2017-11-18T01:40:59.878Z,67.00
2017-11-18T01:42:01.194Z,66.90
2017-11-18T01:43:02.808Z,67.00
2017-11-18T01:44:04.152Z,67.00
2017-11-18T01:45:05.460Z,67.00
2017-11-18T01:46:07.593Z,66.90
2017-11-18T01:47:08.942Z,66.90
2017-11-18T01:48:10.532Z,66.90
2017-11-18T01:49:12.753Z,66.80
2017-11-18T01:50:14.113Z,66.80
2017-11-18T01:51:15.439Z,66.80
2017-11-18T01:52:16.750Z,66.80
2017-11-18T01:53:18.429Z,66.80
2017-11-18T01:54:19.745Z,66.80
2017-11-18T01:55:21.065Z,66.90
2017-11-18T01:56:23.129Z,67.30
2017-11-18T01:57:24.436Z,67.30
2017-11-18T01:58:26.059Z,67.40
2017-11-18T01:59:27.370Z,67.50
2017-11-18T02:00:28.694Z,67.60
2017-11-18T02:01:30.028Z,67.70
2017-11-18T02:02:42.361Z,67.80
2017-11-18T02:03:43.732Z,67.90
2017-11-18T02:04:45.018Z,67.90
2017-11-18T02:05:46.361Z,67.90
2017-11-18T02:06:47.700Z,67.90
2017-11-18T02:07:49.021Z,67.80
2017-11-18T02:08:50.614Z,67.90
2017-11-18T02:09:51.938Z,67.70
2017-11-18T02:10:53.257Z,67.70
2017-11-18T02:11:54.585Z,67.70
2017-11-18T02:12:55.901Z,67.60
2017-11-18T02:13:57.521Z,67.50
2017-11-18T02:14:58.843Z,67.40
2017-11-18T02:16:00.173Z,67.30
2017-11-18T02:17:02.226Z,67.30
2017-11-18T02:18:03.528Z,67.30
2017-11-18T02:19:05.122Z,67.30
2017-11-18T02:20:06.489Z,67.30
2017-11-18T02:21:08.553Z,67.40
2017-11-18T02:22:09.890Z,68.10
2017-11-18T02:23:11.969Z,67.70
2017-11-18T02:24:13.716Z,67.70
2017-11-18T02:25:15.051Z,67.60
2017-11-18T02:26:16.391Z,67.60
2017-11-18T02:27:17.742Z,67.50
2017-11-18T02:28:20.085Z,67.50
2017-11-18T02:29:21.961Z,67.50
2017-11-18T02:30:23.304Z,67.60
2017-11-18T02:31:24.640Z,67.40
2017-11-18T02:32:25.966Z,67.40
2017-11-18T02:33:27.316Z,67.40
2017-11-18T02:34:28.942Z,67.50
2017-11-18T02:35:30.276Z,67.40
2017-11-18T02:36:31.628Z,67.40
2017-11-18T02:37:32.976Z,67.30
2017-11-18T02:38:34.315Z,67.30
2017-11-18T02:39:35.977Z,67.70
2017-11-18T02:40:37.349Z,67.20
2017-11-18T02:41:39.433Z,67.50
2017-11-18T02:42:40.780Z,67.40
2017-11-18T02:43:42.158Z,67.30
2017-11-18T02:44:43.839Z,67.30
2017-11-18T02:45:45.926Z,67.10
2017-11-18T02:46:47.248Z,67.10
2017-11-18T02:47:48.629Z,67.20
2017-11-18T02:48:49.991Z,67.20
2017-11-18T02:49:51.624Z,67.40
2017-11-18T02:50:52.959Z,67.60
2017-11-18T02:51:54.282Z,67.60
2017-11-18T02:52:55.709Z,67.50
2017-11-18T02:53:57.068Z,67.50
2017-11-18T02:54:58.697Z,67.40
2017-11-18T02:56:00.036Z,67.50
2017-11-18T02:57:01.368Z,67.40
2017-11-18T02:58:02.709Z,67.40
2017-11-18T02:59:04.063Z,67.90
2017-11-18T03:00:06.509Z,67.10
2017-11-18T03:01:07.817Z,67.10
2017-11-18T03:02:09.177Z,67.10
2017-11-18T03:03:10.514Z,67.10
2017-11-18T03:04:11.815Z,67.20
2017-11-18T03:05:13.897Z,67.30
2017-11-18T03:06:15.221Z,67.30
2017-11-18T03:07:17.291Z,67.30
2017-11-18T03:08:18.671Z,67.30
2017-11-18T03:09:20.019Z,67.30
2017-11-18T03:10:21.946Z,67.40
2017-11-18T03:11:23.294Z,67.30
2017-11-18T03:12:24.610Z,67.20
2017-11-18T03:13:25.987Z,67.20
2017-11-18T03:14:27.309Z,67.20
2017-11-18T03:15:29.034Z,67.20
2017-11-18T03:16:30.378Z,67.20
2017-11-18T03:17:31.687Z,67.10
2017-11-18T03:18:33.013Z,67.10
2017-11-18T03:19:35.084Z,67.10
2017-11-18T03:20:36.706Z,67.00
2017-11-18T03:21:38.804Z,67.10
2017-11-18T03:22:40.133Z,67.00
2017-11-18T03:23:41.457Z,67.10
2017-11-18T03:24:43.539Z,66.90
2017-11-18T03:25:45.310Z,66.90
2017-11-18T03:26:46.644Z,66.80
2017-11-18T03:27:47.953Z,66.90
2017-11-18T03:28:49.247Z,66.80
2017-11-18T03:29:51.337Z,67.50
2017-11-18T03:30:52.930Z,66.80
2017-11-18T03:31:54.249Z,66.80
2017-11-18T03:32:55.565Z,66.80
2017-11-18T03:33:56.888Z,66.70
2017-11-18T03:34:58.944Z,66.80
2017-11-18T03:36:00.549Z,66.80
2017-11-18T03:37:01.874Z,66.80
2017-11-18T03:38:03.226Z,66.70
2017-11-18T03:39:04.549Z,66.70
2017-11-18T03:40:05.921Z,66.80
2017-11-18T03:41:07.832Z,66.90
2017-11-18T03:42:09.869Z,67.60
2017-11-18T03:43:11.206Z,67.00
2017-11-18T03:44:12.549Z,67.00
2017-11-18T03:45:13.873Z,67.10
2017-11-18T03:46:15.485Z,67.00
2017-11-18T03:47:16.812Z,67.10
2017-11-18T03:48:18.128Z,67.00
2017-11-18T03:49:20.189Z,66.90
2017-11-18T03:50:21.537Z,66.90
2017-11-18T03:51:23.146Z,66.80
2017-11-18T03:52:24.478Z,66.80
2017-11-18T03:53:25.805Z,66.60
2017-11-18T03:54:27.133Z,66.80
2017-11-18T03:55:29.210Z,66.70
2017-11-18T03:56:30.823Z,66.70
2017-11-18T03:57:32.879Z,66.60
2017-11-18T03:58:34.945Z,66.50
2017-11-18T03:59:37.021Z,66.40
2017-11-18T04:00:38.371Z,66.40
2017-11-18T04:01:39.972Z,66.60
2017-11-18T04:02:42.050Z,66.70
2017-11-18T04:03:43.406Z,66.60
2017-11-18T04:04:44.715Z,66.80
2017-11-18T04:05:46.804Z,67.00
2017-11-18T04:06:48.461Z,67.00
2017-11-18T04:07:49.757Z,67.10
2017-11-18T04:08:51.110Z,67.00
2017-11-18T04:09:52.480Z,67.00
2017-11-18T04:10:53.805Z,67.10
2017-11-18T04:11:55.208Z,67.00
2017-11-18T04:12:57.258Z,67.10
2017-11-18T04:13:59.324Z,67.30
2017-11-18T04:15:00.616Z,67.30
2017-11-18T04:16:01.953Z,67.40
2017-11-18T04:17:03.569Z,68.00
2017-11-18T04:18:04.901Z,67.20
2017-11-18T04:19:06.250Z,67.20
2017-11-18T04:20:07.609Z,67.20
2017-11-18T04:21:08.933Z,67.20
2017-11-18T04:22:10.568Z,67.30
2017-11-18T04:23:11.939Z,67.30
2017-11-18T04:24:13.261Z,67.20
2017-11-18T04:25:14.593Z,67.10
2017-11-18T04:26:15.913Z,67.30
2017-11-18T04:27:17.558Z,67.90
2017-11-18T04:28:18.877Z,67.10
2017-11-18T04:29:20.941Z,67.10
2017-11-18T04:30:22.270Z,67.10
2017-11-18T04:31:23.614Z,67.00
2017-11-18T04:32:25.380Z,67.00
2017-11-18T04:33:26.726Z,67.00
2017-11-18T04:34:28.052Z,66.90
2017-11-18T04:35:29.369Z,67.60
2017-11-18T04:36:31.447Z,67.00
2017-11-18T04:37:33.093Z,67.00
2017-11-18T04:38:34.413Z,67.10
2017-11-18T04:39:35.714Z,67.00
2017-11-18T04:40:37.032Z,67.00
2017-11-18T04:41:38.391Z,67.00
2017-11-18T04:42:39.757Z,67.00
2017-11-18T04:43:41.802Z,66.90
2017-11-18T04:44:43.960Z,67.00
2017-11-18T04:45:46.002Z,66.90
2017-11-18T04:46:47.319Z,66.80
2017-11-18T04:47:48.947Z,66.80
2017-11-18T04:48:50.274Z,66.70
2017-11-18T04:49:51.612Z,66.70
2017-11-18T04:50:52.900Z,66.80
2017-11-18T04:51:54.234Z,66.80
2017-11-18T04:52:55.868Z,66.90
2017-11-18T04:53:57.188Z,66.80
2017-11-18T04:54:58.517Z,66.90
2017-11-18T04:55:59.839Z,67.00
2017-11-18T04:57:01.177Z,67.00
2017-11-18T04:58:02.828Z,67.00
2017-11-18T04:59:04.186Z,67.10
2017-11-18T05:00:05.527Z,67.20
2017-11-18T05:01:06.865Z,67.10
2017-11-18T05:02:08.186Z,67.10
2017-11-18T05:03:10.144Z,67.10
2017-11-18T05:04:11.450Z,67.10
2017-11-18T05:05:13.500Z,67.00
2017-11-18T05:06:15.546Z,67.00
2017-11-18T05:07:17.606Z,67.00
2017-11-18T05:08:20.005Z,67.00
2017-11-18T05:09:21.341Z,66.90
2017-11-18T05:10:22.681Z,67.00
2017-11-18T05:11:24.006Z,66.90
2017-11-18T05:12:25.345Z,66.90
2017-11-18T05:13:27.004Z,66.70
2017-11-18T05:14:28.325Z,66.60
2017-11-18T05:15:29.634Z,66.70
2017-11-18T05:16:31.668Z,67.30
2017-11-18T05:17:33.024Z,66.50
2017-11-18T05:18:34.653Z,66.40
2017-11-18T05:19:35.970Z,66.50
2017-11-18T05:20:37.302Z,66.40
2017-11-18T05:21:38.648Z,66.40
2017-11-18T05:22:39.997Z,66.40
2017-11-18T05:23:41.611Z,66.40
2017-11-18T05:24:42.919Z,66.60
2017-11-18T05:25:44.968Z,67.10
2017-11-18T05:26:47.049Z,66.50
2017-11-18T05:27:48.353Z,66.50
2017-11-18T05:28:49.965Z,66.60
2017-11-18T05:29:51.284Z,66.60
2017-11-18T05:30:52.621Z,66.60
2017-11-18T05:31:53.946Z,66.60
2017-11-18T05:32:55.241Z,66.60
2017-11-18T05:33:56.600Z,66.60
2017-11-18T05:34:58.667Z,66.70
2017-11-18T05:36:00.004Z,66.70
2017-11-18T05:37:01.349Z,66.50
2017-11-18T05:38:02.674Z,66.40
2017-11-18T05:39:05.075Z,67.20
2017-11-18T05:40:06.419Z,66.50
2017-11-18T05:41:07.751Z,66.50
2017-11-18T05:42:09.063Z,66.50
2017-11-18T05:43:10.368Z,66.60
2017-11-18T05:44:12.711Z,66.80
2017-11-18T05:45:14.078Z,66.40
2017-11-18T05:46:16.144Z,66.40
2017-11-18T05:47:18.189Z,66.60
2017-11-18T05:48:20.261Z,66.60
2017-11-18T05:49:22.651Z,66.60
2017-11-18T05:50:23.957Z,66.50
2017-11-18T05:51:25.250Z,66.60
2017-11-18T05:52:26.544Z,66.50
2017-11-18T05:53:27.865Z,66.40
2017-11-18T05:54:30.190Z,66.40
2017-11-18T05:55:32.224Z,66.40
2017-11-18T05:56:33.557Z,66.40
2017-11-18T05:57:34.885Z,66.40
2017-11-18T05:58:36.194Z,66.60
2017-11-18T05:59:38.585Z,66.80
2017-11-18T06:00:39.932Z,66.80
2017-11-18T06:01:41.284Z,66.90
2017-11-18T06:02:42.633Z,67.50
2017-11-18T06:03:43.953Z,66.90
2017-11-18T06:04:45.565Z,67.10
2017-11-18T06:05:47.644Z,67.20
2017-11-18T06:06:48.939Z,67.10
2017-11-18T06:07:51.009Z,67.80
2017-11-18T06:08:53.048Z,67.10
2017-11-18T06:09:55.659Z,67.10
2017-11-18T06:10:56.965Z,67.10
2017-11-18T06:11:59.029Z,67.10
2017-11-18T06:13:00.321Z,67.00
2017-11-18T06:14:01.629Z,67.10
2017-11-18T06:15:03.281Z,67.10
2017-11-18T06:16:04.585Z,67.20
2017-11-18T06:17:05.873Z,67.10
2017-11-18T06:18:07.212Z,67.10
2017-11-18T06:19:08.528Z,67.30
2017-11-18T06:20:10.134Z,67.40
2017-11-18T06:21:12.164Z,67.50
2017-11-18T06:22:13.466Z,67.40
2017-11-18T06:23:14.789Z,67.50
2017-11-18T06:24:16.100Z,67.50
2017-11-18T06:25:18.434Z,67.50
2017-11-18T06:26:19.739Z,67.40
2017-11-18T06:27:21.054Z,67.60
2017-11-18T06:28:22.361Z,67.60
2017-11-18T06:29:23.669Z,67.60
2017-11-18T06:30:25.501Z,67.70
2017-11-18T06:31:26.810Z,67.60
2017-11-18T06:32:28.833Z,67.40
2017-11-18T06:33:30.125Z,67.40
2017-11-18T06:34:31.414Z,67.30
2017-11-18T06:35:33.006Z,67.30
2017-11-18T06:36:34.332Z,67.30
2017-11-18T06:37:35.653Z,67.30
2017-11-18T06:38:37.681Z,67.30
2017-11-18T06:39:38.998Z,67.20
2017-11-18T06:40:40.333Z,67.30
2017-11-18T06:41:41.626Z,67.40
2017-11-18T06:42:43.673Z,67.60
2017-11-18T06:43:45.722Z,67.70
2017-11-18T06:44:47.772Z,67.80
2017-11-18T06:45:49.391Z,67.70
2017-11-18T06:46:50.698Z,67.80
2017-11-18T06:47:51.985Z,67.80
2017-11-18T06:48:53.281Z,68.00
2017-11-18T06:49:54.585Z,68.00
2017-11-18T06:50:56.651Z,68.10
2017-11-18T06:51:57.963Z,68.10
2017-11-18T06:53:00.021Z,68.20
2017-11-18T06:54:02.051Z,68.20
2017-11-18T06:55:03.391Z,68.20
2017-11-18T06:56:04.989Z,68.50
2017-11-18T06:57:06.277Z,68.50
2017-11-18T06:58:07.562Z,68.50
2017-11-18T06:59:08.856Z,68.40
2017-11-18T07:00:10.165Z,68.40
2017-11-18T07:01:11.743Z,68.30
2017-11-18T07:02:13.031Z,68.40
2017-11-18T07:03:14.339Z,68.40
2017-11-18T07:04:15.648Z,68.30
2017-11-18T07:05:16.950Z,68.20
2017-11-18T07:06:18.490Z,69.00
2017-11-18T07:07:19.800Z,68.40
2017-11-18T07:08:21.102Z,68.40
2017-11-18T07:09:22.406Z,68.40
2017-11-18T07:10:23.684Z,68.40
2017-11-18T07:11:25.028Z,68.70
2017-11-18T07:12:27.060Z,69.30
2017-11-18T07:13:28.349Z,68.50
2017-11-18T07:14:29.646Z,68.40
2017-11-18T07:15:30.936Z,68.20
2017-11-18T07:16:32.297Z,68.10
2017-11-18T07:17:33.617Z,68.00
2017-11-18T07:18:34.950Z,67.90
2017-11-18T07:19:36.244Z,68.00
2017-11-18T07:20:38.264Z,67.60
2017-11-18T07:21:39.588Z,67.70
2017-11-18T07:22:40.885Z,67.50
2017-11-18T07:23:42.914Z,66.70
2017-11-18T07:24:44.206Z,66.60
2017-11-18T07:25:45.506Z,66.80
2017-11-18T07:26:47.569Z,66.70
2017-11-18T07:27:49.610Z,66.60
2017-11-18T07:28:50.913Z,66.40
2017-11-18T07:29:52.219Z,66.50
2017-11-18T07:30:53.521Z,66.40
2017-11-18T07:31:54.990Z,66.10
2017-11-18T07:32:56.292Z,66.90
2017-11-18T07:33:57.582Z,66.40
2017-11-18T07:34:58.905Z,66.30
2017-11-18T07:36:00.278Z,66.20
2017-11-18T07:37:01.875Z,66.30
2017-11-18T07:38:03.910Z,66.30
2017-11-18T07:39:05.986Z,66.30
2017-11-18T07:40:08.045Z,66.30
2017-11-18T07:41:10.083Z,66.30
2017-11-18T07:42:12.422Z,66.60
2017-11-18T07:43:13.728Z,66.30
2017-11-18T07:44:15.022Z,66.20
2017-11-18T07:45:17.065Z,66.20
2017-11-18T07:46:18.395Z,66.20
2017-11-18T07:47:19.984Z,66.20
2017-11-18T07:48:21.288Z,66.20
2017-11-18T07:49:22.601Z,66.20
2017-11-18T07:50:23.905Z,66.20
2017-11-18T07:51:25.226Z,66.70
2017-11-18T07:52:27.621Z,66.90
2017-11-18T07:53:28.905Z,66.90
2017-11-18T07:54:30.205Z,67.30
2017-11-18T07:55:32.251Z,67.50
2017-11-18T07:56:33.548Z,67.40
2017-11-18T07:57:35.891Z,66.70
2017-11-18T07:58:37.201Z,66.60
2017-11-18T07:59:38.482Z,66.50
2017-11-18T08:00:40.526Z,66.50
2017-11-18T08:01:41.825Z,66.50
2017-11-18T08:02:43.459Z,66.60
2017-11-18T08:03:44.761Z,67.20
2017-11-18T08:04:46.793Z,66.00
2017-11-18T08:05:48.105Z,65.90
2017-11-18T08:06:49.393Z,66.10
2017-11-18T08:07:51.460Z,66.50
2017-11-18T08:08:52.753Z,66.40
2017-11-18T08:09:54.058Z,66.50
2017-11-18T08:10:55.365Z,66.50
2017-11-18T08:11:57.406Z,66.50
2017-11-18T08:12:59.812Z,66.50
2017-11-18T08:14:01.115Z,66.50
2017-11-18T08:15:03.164Z,66.20
2017-11-18T08:16:05.194Z,66.20
2017-11-18T08:17:06.494Z,66.20
2017-11-18T08:18:07.847Z,66.30
2017-11-18T08:19:09.150Z,66.10
2017-11-18T08:20:12.035Z,66.60
2017-11-18T08:21:13.375Z,66.50
2017-11-18T08:22:14.685Z,66.60
2017-11-18T08:23:17.300Z,66.60
2017-11-18T08:24:18.610Z,66.50
2017-11-18T08:25:19.898Z,66.00
2017-11-18T08:26:21.207Z,66.00
2017-11-18T08:27:22.509Z,65.90
2017-11-18T08:28:24.587Z,66.60
2017-11-18T08:29:25.876Z,66.50
2017-11-18T08:30:27.181Z,66.40
2017-11-18T08:31:28.481Z,66.40
2017-11-18T08:32:29.801Z,66.00
2017-11-18T08:33:31.865Z,66.60
2017-11-18T08:34:33.890Z,65.90
2017-11-18T08:35:35.198Z,65.80
2017-11-18T08:36:37.475Z,65.80
2017-11-18T08:37:38.769Z,66.00
2017-11-18T08:38:41.104Z,66.30
2017-11-18T08:39:43.147Z,66.60
2017-11-18T08:40:44.466Z,66.40
2017-11-18T08:41:45.764Z,66.60
2017-11-18T08:42:47.065Z,66.70
2017-11-18T08:43:48.405Z,66.30
2017-11-18T08:44:49.705Z,66.20
2017-11-18T08:45:50.997Z,65.90
2017-11-18T08:46:52.377Z,65.80
2017-11-18T08:47:53.672Z,65.70
2017-11-18T08:48:55.728Z,65.30
2017-11-18T08:49:57.777Z,65.20
2017-11-18T08:50:59.804Z,65.30
2017-11-18T08:52:01.097Z,65.30
2017-11-18T08:53:02.411Z,65.30
2017-11-18T08:54:04.669Z,65.30
2017-11-18T08:55:06.746Z,65.50
2017-11-18T08:56:08.082Z,65.50
2017-11-18T08:57:09.416Z,65.20
2017-11-18T08:58:10.736Z,66.00
2017-11-18T08:59:12.849Z,65.70
2017-11-18T09:00:15.819Z,65.50
2017-11-18T09:01:17.138Z,65.40
2017-11-18T09:02:18.462Z,65.40
2017-11-18T09:03:19.810Z,65.50
2017-11-18T09:04:21.423Z,65.50
2017-11-18T09:05:23.484Z,65.50
2017-11-18T09:06:25.543Z,65.70
2017-11-18T09:07:27.576Z,65.80
2017-11-18T09:08:28.889Z,65.80
2017-11-18T09:09:30.221Z,65.90
2017-11-18T09:10:31.513Z,65.90
2017-11-18T09:11:33.545Z,66.10
2017-11-18T09:12:34.851Z,66.00
2017-11-18T09:13:36.145Z,65.60
2017-11-18T09:14:38.638Z,65.70
2017-11-18T09:15:39.931Z,65.60
2017-11-18T09:16:41.245Z,65.40
2017-11-18T09:17:42.549Z,65.50
2017-11-18T09:18:43.860Z,65.70
2017-11-18T09:19:45.948Z,65.80
2017-11-18T09:20:47.305Z,65.70
2017-11-18T09:21:48.597Z,65.60
2017-11-18T09:22:50.630Z,65.70
2017-11-18T09:23:52.667Z,66.10
2017-11-18T09:24:54.272Z,65.70
2017-11-18T09:25:55.564Z,66.00
2017-11-18T09:26:57.606Z,65.40
2017-11-18T09:27:58.901Z,65.80
2017-11-18T09:29:00.186Z,65.80
2017-11-18T09:30:01.772Z,65.70
2017-11-18T09:31:03.077Z,65.60
2017-11-18T09:32:05.126Z,65.80
2017-11-18T09:33:06.410Z,65.70
2017-11-18T09:34:07.707Z,65.80
2017-11-18T09:35:09.341Z,65.80
2017-11-18T09:36:10.639Z,65.60
2017-11-18T09:37:11.921Z,65.40
2017-11-18T09:38:13.238Z,65.40
2017-11-18T09:39:14.550Z,65.40
2017-11-18T09:40:16.138Z,65.10
2017-11-18T09:41:17.454Z,64.90
2017-11-18T09:42:18.751Z,64.80
2017-11-18T09:43:20.041Z,64.80
2017-11-18T09:44:21.334Z,64.80
2017-11-18T09:45:22.926Z,65.20
2017-11-18T09:46:24.230Z,65.10
2017-11-18T09:47:25.548Z,65.60
2017-11-18T09:48:26.833Z,65.70
2017-11-18T09:49:28.114Z,65.60
2017-11-18T09:50:29.471Z,65.50
2017-11-18T09:51:30.763Z,65.70
2017-11-18T09:52:32.806Z,65.70
2017-11-18T09:53:34.110Z,65.70
2017-11-18T09:54:35.434Z,65.70
2017-11-18T09:55:36.784Z,65.70
2017-11-18T09:56:38.085Z,65.70
2017-11-18T09:57:40.123Z,66.20
2017-11-18T09:58:41.425Z,66.20
2017-11-18T09:59:42.716Z,66.50
2017-11-18T10:00:44.826Z,66.70
2017-11-18T10:01:46.133Z,66.70
2017-11-18T10:02:47.418Z,66.40
2017-11-18T10:03:48.744Z,66.40
2017-11-18T10:04:50.078Z,66.40
2017-11-18T10:05:51.705Z,66.70
2017-11-18T10:06:53.770Z,66.70
2017-11-18T10:07:55.096Z,66.60
2017-11-18T10:08:56.389Z,66.70
2017-11-18T10:09:58.444Z,66.80
2017-11-18T10:11:00.789Z,66.60
2017-11-18T10:12:02.073Z,66.60
2017-11-18T10:13:03.414Z,66.40
2017-11-18T10:14:04.710Z,66.10
2017-11-18T10:15:05.995Z,66.30
2017-11-18T10:16:07.581Z,66.10
2017-11-18T10:17:08.871Z,66.00
2017-11-18T10:18:10.175Z,66.20
2017-11-18T10:19:12.205Z,66.50
2017-11-18T10:20:13.505Z,66.50
2017-11-18T10:21:14.845Z,66.50
2017-11-18T10:22:16.159Z,66.90
2017-11-18T10:23:18.207Z,66.90
2017-11-18T10:24:20.246Z,66.90
2017-11-18T10:25:21.527Z,66.90
2017-11-18T10:26:22.917Z,66.90
2017-11-18T10:27:24.223Z,67.00
2017-11-18T10:28:25.545Z,67.00
2017-11-18T10:29:26.865Z,67.10
2017-11-18T10:30:28.188Z,67.00
2017-11-18T10:31:30.292Z,67.00
2017-11-18T10:32:31.586Z,67.00
2017-11-18T10:33:33.618Z,66.90
2017-11-18T10:34:34.928Z,66.90
2017-11-18T10:35:36.251Z,66.80
2017-11-18T10:36:37.621Z,66.80
2017-11-18T10:37:38.934Z,66.70
2017-11-18T10:38:40.260Z,66.60
2017-11-18T10:39:41.553Z,66.40
2017-11-18T10:40:43.598Z,66.00
2017-11-18T10:41:45.207Z,65.90
2017-11-18T10:42:46.502Z,65.70
2017-11-18T10:43:48.583Z,66.20
2017-11-18T10:44:49.936Z,66.20
2017-11-18T10:45:51.248Z,66.20
2017-11-18T10:46:52.615Z,66.40
2017-11-18T10:47:53.980Z,66.30
2017-11-18T10:48:55.312Z,66.40
2017-11-18T10:49:56.654Z,66.70
2017-11-18T10:50:57.967Z,66.50
2017-11-18T10:51:59.352Z,66.30
2017-11-18T10:53:00.711Z,66.30
2017-11-18T10:54:02.061Z,66.20
2017-11-18T10:55:03.422Z,66.40
2017-11-18T10:56:04.749Z,66.40
2017-11-18T10:57:06.357Z,66.70
2017-11-18T10:58:08.420Z,66.60
2017-11-18T10:59:10.481Z,66.50
2017-11-18T11:00:12.574Z,66.20
2017-11-18T11:01:13.885Z,66.10
2017-11-18T11:02:16.225Z,66.20
2017-11-18T11:03:18.269Z,66.30
2017-11-18T11:04:19.591Z,66.20
2017-11-18T11:05:20.956Z,66.00
2017-11-18T11:06:23.003Z,66.30
2017-11-18T11:07:25.094Z,66.40
2017-11-18T11:08:26.402Z,66.30
2017-11-18T11:09:28.458Z,65.90
2017-11-18T11:10:29.818Z,65.90
2017-11-18T11:11:31.132Z,65.80
2017-11-18T11:12:33.506Z,65.90
2017-11-18T11:13:35.577Z,65.90
2017-11-18T11:14:36.915Z,65.90
2017-11-18T11:15:38.350Z,65.60
2017-11-18T11:16:39.772Z,65.40
2017-11-18T11:17:41.946Z,65.70
2017-11-18T11:18:43.414Z,65.70
2017-11-18T11:19:44.794Z,65.60
2017-11-18T11:20:46.270Z,65.60
2017-11-18T11:21:47.684Z,65.90
2017-11-18T11:22:49.095Z,66.10
2017-11-18T11:23:50.499Z,66.20
2017-11-18T11:24:51.893Z,66.10
2017-11-18T11:25:53.250Z,65.90
2017-11-18T11:26:55.375Z,66.10
2017-11-18T11:27:57.128Z,66.10
2017-11-18T11:28:58.529Z,66.10
2017-11-18T11:29:59.946Z,66.30
2017-11-18T11:31:01.371Z,66.40
2017-11-18T11:32:02.806Z,66.50
2017-11-18T11:33:05.253Z,66.60
2017-11-18T11:34:06.756Z,66.40
2017-11-18T11:35:08.236Z,66.50
2017-11-18T11:36:10.466Z,66.90
2017-11-18T11:37:11.869Z,66.80
2017-11-18T11:38:14.344Z,67.00
2017-11-18T11:39:15.792Z,67.00
2017-11-18T11:40:17.218Z,67.00
2017-11-18T11:41:18.750Z,67.00
2017-11-18T11:42:20.914Z,67.00
2017-11-18T11:43:23.178Z,66.90
2017-11-18T11:44:24.597Z,67.00
2017-11-18T11:45:26.028Z,66.90
2017-11-18T11:46:27.450Z,66.90
2017-11-18T11:47:28.961Z,66.90
2017-11-18T11:48:32.144Z,67.00
2017-11-18T11:49:33.626Z,67.20
2017-11-18T11:50:35.695Z,67.40
2017-11-18T11:51:37.061Z,67.30
2017-11-18T11:52:38.483Z,67.30
2017-11-18T11:53:39.895Z,67.40
2017-11-18T11:54:41.333Z,67.70
2017-11-18T11:55:42.907Z,67.80
2017-11-18T11:56:44.360Z,67.80
2017-11-18T11:57:45.965Z,67.70
2017-11-18T11:58:47.644Z,67.60
2017-11-18T11:59:49.942Z,67.50
2017-11-18T12:00:51.415Z,67.50
2017-11-18T12:01:53.571Z,67.10
2017-11-18T12:02:55.672Z,67.00
2017-11-18T12:03:57.816Z,67.00
2017-11-18T12:04:59.885Z,67.60
2017-11-18T12:06:01.972Z,67.10
2017-11-18T12:07:03.319Z,67.10
2017-11-18T12:08:04.667Z,67.10
2017-11-18T12:09:06.299Z,67.10
2017-11-18T12:10:07.634Z,67.20
2017-11-18T12:11:08.983Z,67.20
2017-11-18T12:12:10.303Z,67.30
2017-11-18T12:13:11.625Z,67.30
2017-11-18T12:14:13.167Z,66.90
2017-11-18T12:15:14.493Z,67.10
2017-11-18T12:16:16.552Z,67.00
2017-11-18T12:17:18.638Z,67.00
2017-11-18T12:18:19.953Z,66.90
2017-11-18T12:19:21.581Z,66.60
2017-11-18T12:20:23.654Z,66.90
2017-11-18T12:21:25.731Z,66.70
2017-11-18T12:22:27.055Z,66.60
2017-11-18T12:23:28.382Z,66.70
2017-11-18T12:24:30.494Z,67.20
2017-11-18T12:25:31.810Z,67.20
2017-11-18T12:26:33.146Z,67.30
2017-11-18T12:27:34.475Z,67.30
2017-11-18T12:28:35.790Z,66.90
2017-11-18T12:29:37.926Z,66.90
2017-11-18T12:30:39.240Z,66.90
2017-11-18T12:31:40.563Z,66.80
2017-11-18T12:32:41.957Z,66.60
2017-11-18T12:33:44.025Z,66.40
2017-11-18T12:34:45.403Z,66.40
2017-11-18T12:35:46.741Z,66.40
2017-11-18T12:36:48.085Z,66.20
2017-11-18T12:37:49.414Z,65.90
2017-11-18T12:38:50.772Z,65.90
2017-11-18T12:39:52.123Z,66.20
2017-11-18T12:40:53.529Z,66.10
2017-11-18T12:41:54.860Z,66.10
2017-11-18T12:42:56.190Z,66.00
2017-11-18T12:43:57.509Z,66.00
2017-11-18T12:44:59.102Z,66.20
2017-11-18T12:46:00.473Z,65.90
2017-11-18T12:47:02.550Z,65.90
2017-11-18T12:48:03.854Z,65.90
2017-11-18T12:49:05.224Z,66.10
2017-11-18T12:50:06.596Z,66.20
2017-11-18T12:51:07.921Z,67.00
2017-11-18T12:52:09.236Z,66.50
2017-11-18T12:53:10.539Z,66.30
2017-11-18T12:54:11.869Z,66.30
2017-11-18T12:55:13.494Z,66.30
2017-11-18T12:56:14.833Z,65.90
2017-11-18T12:57:16.151Z,66.30
2017-11-18T12:58:17.452Z,66.20
2017-11-18T12:59:19.513Z,66.00
2017-11-18T13:00:21.625Z,66.60
2017-11-18T13:01:22.946Z,66.00
2017-11-18T13:02:24.263Z,65.80
2017-11-18T13:03:25.615Z,65.50
2017-11-18T13:04:26.926Z,65.50
2017-11-18T13:05:29.264Z,65.50
2017-11-18T13:06:30.602Z,65.40
2017-11-18T13:07:31.925Z,65.30
2017-11-18T13:08:33.209Z,65.30
2017-11-18T13:09:34.492Z,65.30
2017-11-18T13:10:36.089Z,65.30
2017-11-18T13:11:37.413Z,65.30
2017-11-18T13:12:39.453Z,65.30